createdAt,value
2019-01-21T00:00:47.005Z,39.13
2019-01-21T00:03:16.675Z,32.30
2019-01-21T00:05:46.288Z,37.10
2019-01-21T00:08:15.853Z,35.13
2019-01-21T00:10:45.490Z,35.53
2019-01-21T00:13:15.098Z,35.20
2019-01-21T00:15:44.757Z,38.03
2019-01-21T00:18:14.409Z,37.57
2019-01-21T00:20:43.994Z,36.07
2019-01-21T00:23:13.566Z,36.77
2019-01-21T00:25:43.135Z,37.83
2019-01-21T00:28:12.750Z,35.40
2019-01-21T00:30:45.429Z,35.10
2019-01-21T00:33:15.043Z,38.70
2019-01-21T00:35:44.848Z,37.30
2019-01-21T00:38:33.730Z,42.13
2019-01-21T00:41:03.351Z,34.40
2019-01-21T00:43:32.933Z,39.20
2019-01-21T00:46:02.538Z,35.13
2019-01-21T00:48:32.145Z,36.07
2019-01-21T00:51:02.410Z,37.93
2019-01-21T00:53:31.828Z,33.23
2019-01-21T00:56:01.437Z,36.53
2019-01-21T00:58:31.032Z,35.90
2019-01-21T01:01:00.672Z,37.40
2019-01-21T01:03:30.382Z,34.17
2019-01-21T01:05:59.990Z,36.03
2019-01-21T01:08:29.593Z,37.57
2019-01-21T01:10:59.206Z,36.60
2019-01-21T01:13:28.783Z,38.70
2019-01-21T01:15:58.362Z,40.17
2019-01-21T01:18:27.938Z,36.33
2019-01-21T01:20:57.511Z,35.83
2019-01-21T01:23:27.105Z,40.20
2019-01-21T01:25:56.974Z,35.10
2019-01-21T01:28:28.053Z,36.77
2019-01-21T01:30:57.608Z,33.53
2019-01-21T01:33:27.307Z,32.10
2019-01-21T01:35:56.920Z,38.53
2019-01-21T01:38:26.526Z,34.90
2019-01-21T01:40:56.144Z,35.10
2019-01-21T01:43:25.867Z,35.53
2019-01-21T01:45:55.516Z,35.20
2019-01-21T01:48:25.343Z,38.40
2019-01-21T01:50:54.984Z,37.93
2019-01-21T01:53:24.619Z,36.47
2019-01-21T01:55:56.351Z,34.53
2019-01-21T01:58:45.290Z,39.80
2019-01-21T02:01:14.921Z,43.23
2019-01-21T02:03:44.759Z,36.93
2019-01-21T02:06:14.446Z,37.37
2019-01-21T02:08:44.039Z,39.90
2019-01-21T02:11:13.767Z,34.87
2019-01-21T02:13:43.381Z,35.97
2019-01-21T02:16:13.375Z,38.30
2019-01-21T02:18:43.002Z,37.10
2019-01-21T02:21:12.683Z,37.63
2019-01-21T02:23:45.723Z,36.37
2019-01-21T02:26:19.019Z,32.80
2019-01-21T02:28:53.502Z,38.50
2019-01-21T02:31:27.922Z,37.47
2019-01-21T02:34:19.797Z,38.43
2019-01-21T02:36:53.863Z,40.03
2019-01-21T02:39:45.780Z,42.87
2019-01-21T02:42:20.094Z,35.03
2019-01-21T02:44:54.154Z,34.57
2019-01-21T02:47:28.239Z,36.57
2019-01-21T02:50:02.283Z,35.63
2019-01-21T02:52:36.345Z,35.63
2019-01-21T02:55:10.396Z,38.00
2019-01-21T02:57:44.435Z,34.00
2019-01-21T03:00:18.529Z,38.07
2019-01-21T03:02:52.572Z,37.87
2019-01-21T03:05:26.647Z,39.67
2019-01-21T03:08:00.686Z,38.27
2019-01-21T03:10:35.504Z,34.33
2019-01-21T03:13:09.571Z,36.13
2019-01-21T03:15:43.616Z,34.17
2019-01-21T03:18:35.473Z,35.37
2019-01-21T03:21:09.936Z,38.20
2019-01-21T03:23:43.967Z,41.83
2019-01-21T03:26:18.038Z,41.83
2019-01-21T03:28:52.058Z,37.90
2019-01-21T03:31:26.144Z,36.67
2019-01-21T03:34:00.197Z,39.27
2019-01-21T03:36:34.257Z,37.63
2019-01-21T03:39:08.519Z,36.97
2019-01-21T03:41:42.579Z,43.67
2019-01-21T03:44:17.005Z,38.13
2019-01-21T03:46:51.443Z,38.07
2019-01-21T03:49:25.477Z,37.17
2019-01-21T03:51:59.596Z,37.97
2019-01-21T03:54:31.826Z,38.80
2019-01-21T03:57:06.184Z,40.47
2019-01-21T03:59:40.259Z,36.83
2019-01-21T04:02:14.352Z,37.30
2019-01-21T04:04:48.386Z,37.13
2019-01-21T04:07:22.465Z,35.87
2019-01-21T04:09:56.508Z,33.37
2019-01-21T04:12:30.630Z,35.97
2019-01-21T04:15:04.658Z,39.60
2019-01-21T04:17:39.068Z,37.87
2019-01-21T04:20:13.132Z,35.90
2019-01-21T04:22:47.216Z,41.50
2019-01-21T04:25:21.310Z,36.43
2019-01-21T04:27:55.349Z,38.57
2019-01-21T04:30:29.402Z,39.53
2019-01-21T04:33:03.469Z,34.47
2019-01-21T04:35:37.869Z,36.70
2019-01-21T04:38:12.305Z,38.83
2019-01-21T04:40:46.347Z,36.33
2019-01-21T04:43:20.431Z,39.40
2019-01-21T04:48:53.928Z,38.27
2019-01-21T04:51:28.372Z,36.00
2019-01-21T04:54:02.539Z,37.97
2019-01-21T04:56:36.608Z,34.97
2019-01-21T04:59:10.697Z,33.43
2019-01-21T05:01:45.024Z,32.30
2019-01-21T05:06:58.846Z,32.57
2019-01-21T05:09:32.879Z,37.63
2019-01-21T05:12:06.986Z,38.00
2019-01-21T05:14:41.081Z,37.57
2019-01-21T05:17:15.499Z,37.33
2019-01-21T05:19:49.541Z,43.43
2019-01-21T05:22:23.610Z,58.70
2019-01-21T05:24:57.677Z,46.37
2019-01-21T05:27:31.734Z,48.23
2019-01-21T05:30:06.187Z,51.20
2019-01-21T05:32:40.628Z,45.93
2019-01-21T05:35:14.677Z,48.03
2019-01-21T05:37:48.765Z,59.23
2019-01-21T05:40:23.068Z,63.37
2019-01-21T05:42:57.164Z,61.23
2019-01-21T05:45:31.224Z,70.60
2019-01-21T05:48:05.281Z,57.57
2019-01-21T05:50:39.635Z,54.20
2019-01-21T05:53:13.693Z,49.50
2019-01-21T05:55:47.745Z,63.17
2019-01-21T05:58:39.637Z,63.60
2019-01-21T06:01:14.058Z,59.90
2019-01-21T06:03:48.127Z,60.67
2019-01-21T06:06:22.154Z,68.00
2019-01-21T06:08:56.272Z,64.53
2019-01-21T06:11:30.325Z,55.40
2019-01-21T06:14:04.398Z,56.53
2019-01-21T06:16:38.448Z,51.60
2019-01-21T06:19:12.507Z,52.53
2019-01-21T06:21:46.548Z,47.93
2019-01-21T06:24:20.625Z,45.40
2019-01-21T06:26:54.696Z,43.50
2019-01-21T06:29:28.752Z,44.73
2019-01-21T06:32:02.836Z,40.53
2019-01-21T06:34:42.868Z,42.47
2019-01-21T06:37:16.892Z,36.57
2019-01-21T06:39:51.364Z,40.50
2019-01-21T06:42:25.419Z,41.20
2019-01-21T06:44:59.857Z,42.83
2019-01-21T06:47:33.887Z,38.77
2019-01-21T06:50:08.593Z,39.77
2019-01-21T06:52:42.659Z,40.67
2019-01-21T06:55:16.762Z,40.83
2019-01-21T06:57:51.181Z,40.53
2019-01-21T07:00:25.247Z,39.03
2019-01-21T07:02:59.290Z,36.87
2019-01-21T07:05:33.371Z,38.97
2019-01-21T07:08:07.449Z,39.90
2019-01-21T07:10:41.770Z,39.50
2019-01-21T07:13:16.522Z,37.60
2019-01-21T07:15:50.627Z,39.17
2019-01-21T07:18:26.063Z,34.60
2019-01-21T07:21:00.283Z,38.93
2019-01-21T07:23:35.009Z,48.63
2019-01-21T07:26:09.060Z,37.10
2019-01-21T07:28:43.139Z,35.67
2019-01-21T07:31:17.558Z,35.87
2019-01-21T07:33:51.753Z,36.77
2019-01-21T07:36:25.790Z,41.07
2019-01-21T07:41:38.963Z,36.20
2019-01-21T07:44:13.008Z,37.27
2019-01-21T07:46:47.528Z,37.77
2019-01-21T07:49:21.933Z,38.50
2019-01-21T07:51:55.987Z,36.33
2019-01-21T07:54:30.325Z,36.63
2019-01-21T07:57:10.278Z,33.67
2019-01-21T07:59:44.374Z,35.20
2019-01-21T08:02:18.502Z,38.87
2019-01-21T08:04:52.906Z,37.40
2019-01-21T08:07:26.939Z,34.10
2019-01-21T08:10:01.036Z,35.17
2019-01-21T08:12:35.277Z,33.10
2019-01-21T08:15:09.360Z,35.93
2019-01-21T08:17:43.418Z,34.57
2019-01-21T08:20:17.489Z,32.33
2019-01-21T08:22:51.925Z,27.63
2019-01-21T08:25:26.001Z,32.27
2019-01-21T08:28:00.645Z,27.63
2019-01-21T08:30:34.654Z,28.13
2019-01-21T08:33:08.776Z,28.43
2019-01-21T08:35:42.789Z,28.20
2019-01-21T08:38:17.588Z,28.20
2019-01-21T08:40:51.620Z,24.47
2019-01-21T08:43:26.774Z,24.37
2019-01-21T08:46:00.758Z,23.93
2019-01-21T08:48:34.851Z,24.37
2019-01-21T08:51:08.882Z,23.93
2019-01-21T08:53:43.047Z,22.80
2019-01-21T08:56:17.077Z,22.93
2019-01-21T08:58:51.497Z,23.60
2019-01-21T09:01:25.931Z,21.90
2019-01-21T09:06:40.895Z,23.37
2019-01-21T09:09:15.303Z,22.87
2019-01-21T09:11:49.369Z,24.20
2019-01-21T09:14:23.409Z,24.50
2019-01-21T09:16:57.494Z,24.30
2019-01-21T09:19:37.083Z,25.30
2019-01-21T09:22:07.332Z,27.30
2019-01-21T09:24:41.371Z,25.70
2019-01-21T09:27:15.389Z,25.40
2019-01-21T09:29:49.447Z,25.87
2019-01-21T09:32:41.662Z,26.73
2019-01-21T09:35:15.717Z,27.20
2019-01-21T09:37:49.785Z,30.07
2019-01-21T09:40:24.218Z,26.00
2019-01-21T09:42:58.306Z,24.83
2019-01-21T09:45:33.347Z,24.53
2019-01-21T09:50:45.124Z,22.50
2019-01-21T09:53:15.043Z,23.70
2019-01-21T09:55:49.052Z,25.70
2019-01-21T09:58:21.710Z,24.70
2019-01-21T10:00:51.369Z,23.33
2019-01-21T10:03:22.458Z,23.97
2019-01-21T10:05:56.700Z,21.40
2019-01-21T10:08:30.740Z,22.73
2019-01-21T10:11:04.797Z,21.97
2019-01-21T10:13:38.851Z,22.83
2019-01-21T10:16:12.915Z,21.90
2019-01-21T10:18:46.977Z,22.07
2019-01-21T10:21:21.740Z,20.87
2019-01-21T10:26:39.236Z,24.47
2019-01-21T10:29:13.303Z,22.27
2019-01-21T10:31:47.370Z,23.50
2019-01-21T10:37:02.712Z,25.57
2019-01-21T10:42:15.814Z,23.27
2019-01-21T10:44:50.222Z,27.23
2019-01-21T10:47:24.289Z,25.63
2019-01-21T10:49:58.311Z,26.23
2019-01-21T10:52:32.766Z,23.87
2019-01-21T10:57:48.358Z,20.93
2019-01-21T11:00:22.413Z,21.80
2019-01-21T11:02:56.489Z,22.43
2019-01-21T11:05:33.559Z,19.73
2019-01-21T11:08:08.015Z,19.57
2019-01-21T11:10:42.194Z,21.17
2019-01-21T11:13:16.227Z,19.63
2019-01-21T11:15:53.017Z,20.50
2019-01-21T11:18:27.074Z,20.37
2019-01-21T11:21:01.104Z,19.13
2019-01-21T11:23:35.217Z,21.30
2019-01-21T11:26:15.267Z,19.50
2019-01-21T11:28:49.318Z,22.13
2019-01-21T11:31:23.779Z,21.20
2019-01-21T11:33:57.935Z,21.97
2019-01-21T11:36:32.007Z,20.70
2019-01-21T11:39:06.055Z,20.77
2019-01-21T11:41:57.902Z,20.90
2019-01-21T11:44:31.983Z,22.60
2019-01-21T11:47:06.002Z,21.43
2019-01-21T11:49:40.088Z,23.17
2019-01-21T11:52:17.529Z,20.23
2019-01-21T11:54:50.199Z,21.63
2019-01-21T12:00:06.914Z,22.17
2019-01-21T12:02:40.939Z,25.33
2019-01-21T12:05:15.044Z,20.47
2019-01-21T12:07:49.038Z,23.77
2019-01-21T12:10:40.889Z,23.30
2019-01-21T12:13:15.000Z,22.30
2019-01-21T12:15:49.107Z,24.23
2019-01-21T12:18:23.106Z,22.93
2019-01-21T12:21:15.316Z,24.80
2019-01-21T12:23:49.360Z,24.07
2019-01-21T12:26:23.428Z,25.67
2019-01-21T12:28:57.487Z,23.00
2019-01-21T12:34:12.803Z,24.87
2019-01-21T12:36:46.874Z,25.03
2019-01-21T12:39:20.947Z,23.30
2019-01-21T12:41:55.012Z,25.57
2019-01-21T12:44:29.413Z,24.37
2019-01-21T12:47:03.435Z,25.67
2019-01-21T12:49:55.297Z,25.23
2019-01-21T12:52:29.321Z,25.53
2019-01-21T12:55:03.386Z,24.40
2019-01-21T12:57:37.430Z,21.47
2019-01-21T13:00:11.847Z,22.53
2019-01-21T13:02:45.868Z,22.10
2019-01-21T13:05:19.932Z,25.10
2019-01-21T13:08:12.987Z,22.77
2019-01-21T13:10:47.039Z,23.03
2019-01-21T13:13:40.122Z,24.63
2019-01-21T13:16:14.152Z,23.33
2019-01-21T13:18:48.569Z,23.53
2019-01-21T13:21:22.643Z,20.27
2019-01-21T13:23:56.683Z,20.77
2019-01-21T13:26:30.741Z,21.67
2019-01-21T13:29:04.816Z,20.73
2019-01-21T13:31:39.727Z,21.30
2019-01-21T13:34:14.150Z,22.50
2019-01-21T13:36:48.211Z,23.13
2019-01-21T13:39:22.292Z,19.90
2019-01-21T13:41:56.362Z,24.10
2019-01-21T13:44:30.389Z,22.97
2019-01-21T13:47:04.456Z,22.20
2019-01-21T13:49:38.495Z,22.87
2019-01-21T13:52:12.574Z,21.90
2019-01-21T13:54:46.626Z,24.17
2019-01-21T13:57:20.698Z,30.63
2019-01-21T13:59:54.717Z,23.93
2019-01-21T14:02:28.798Z,23.67
2019-01-21T14:07:41.863Z,26.97
2019-01-21T14:10:16.247Z,25.00
2019-01-21T14:12:50.327Z,27.03
2019-01-21T14:15:43.429Z,26.40
2019-01-21T14:20:56.487Z,26.73
2019-01-21T14:23:30.521Z,24.20
2019-01-21T14:26:04.620Z,25.33
2019-01-21T14:28:38.657Z,24.23
2019-01-21T14:31:12.735Z,19.93
2019-01-21T14:33:47.502Z,25.10
2019-01-21T14:36:21.883Z,24.20
2019-01-21T14:38:55.945Z,26.83
2019-01-21T14:41:30.010Z,25.43
2019-01-21T14:46:43.203Z,27.30
2019-01-21T14:49:17.244Z,24.80
2019-01-21T14:51:51.735Z,24.47
2019-01-21T14:54:43.552Z,24.60
2019-01-21T14:59:56.327Z,29.20
2019-01-21T15:02:30.330Z,26.80
2019-01-21T15:05:04.910Z,27.07
2019-01-21T15:07:38.995Z,26.10
2019-01-21T15:10:13.545Z,28.87
2019-01-21T15:13:05.378Z,28.47
2019-01-21T15:18:18.183Z,33.20
2019-01-21T15:20:57.676Z,26.10
2019-01-21T15:23:28.609Z,26.20
2019-01-21T15:26:03.614Z,27.70
2019-01-21T15:28:37.924Z,27.13
2019-01-21T15:31:11.986Z,24.70
2019-01-21T15:36:27.680Z,27.60
2019-01-21T15:39:01.729Z,24.87
2019-01-21T15:41:35.933Z,29.37
2019-01-21T15:44:10.087Z,25.60
2019-01-21T15:46:44.155Z,28.20
2019-01-21T15:49:18.200Z,27.03
2019-01-21T15:52:10.070Z,27.83
2019-01-21T15:54:44.109Z,28.73
2019-01-21T15:57:18.543Z,27.03
2019-01-21T15:59:52.572Z,26.03
2019-01-21T16:02:26.627Z,24.57
2019-01-21T16:05:00.774Z,23.27
2019-01-21T16:07:34.961Z,20.87
2019-01-21T16:10:08.988Z,23.10
2019-01-21T16:12:43.068Z,23.97
2019-01-21T16:15:17.149Z,24.93
2019-01-21T16:18:08.987Z,26.83
2019-01-21T16:20:43.053Z,24.87
2019-01-21T16:23:17.168Z,24.90
2019-01-21T16:25:50.888Z,23.37
2019-01-21T16:28:25.005Z,22.40
2019-01-21T16:30:59.021Z,25.40
2019-01-21T16:33:33.114Z,22.43
2019-01-21T16:36:07.176Z,22.93
2019-01-21T16:38:36.743Z,25.37
2019-01-21T16:41:10.837Z,25.13
2019-01-21T16:43:40.474Z,22.50
2019-01-21T16:46:10.074Z,25.87
2019-01-21T16:48:39.545Z,25.50
2019-01-21T16:51:09.208Z,24.40
2019-01-21T16:53:38.816Z,23.73
2019-01-21T16:56:08.495Z,28.53
2019-01-21T16:58:38.056Z,25.90
2019-01-21T17:01:07.734Z,26.53
2019-01-21T17:03:41.112Z,26.93
2019-01-21T17:06:10.681Z,30.20
2019-01-21T17:08:40.120Z,31.33
2019-01-21T17:11:09.811Z,26.37
2019-01-21T17:13:39.475Z,29.33
2019-01-21T17:16:09.211Z,28.20
2019-01-21T17:18:38.819Z,29.00
2019-01-21T17:21:08.486Z,30.17
2019-01-21T17:23:38.077Z,28.43
2019-01-21T17:26:08.075Z,30.53
2019-01-21T17:28:37.679Z,29.17
2019-01-21T17:31:07.272Z,30.73
2019-01-21T17:33:36.982Z,33.03
2019-01-21T17:36:06.641Z,32.70
2019-01-21T17:38:36.214Z,34.10
2019-01-21T17:41:06.093Z,30.20
2019-01-21T17:43:35.681Z,28.83
2019-01-21T17:46:05.453Z,31.97
2019-01-21T17:48:35.050Z,33.03
2019-01-21T17:51:04.618Z,30.30
2019-01-21T17:53:34.206Z,31.20
2019-01-21T17:56:03.808Z,33.10
2019-01-21T17:58:33.380Z,33.83
2019-01-21T18:01:03.055Z,32.97
2019-01-21T18:03:32.671Z,32.93
2019-01-21T18:06:02.231Z,33.27
2019-01-21T18:08:31.810Z,32.23
2019-01-21T18:11:01.437Z,33.17
2019-01-21T18:13:31.012Z,35.77
2019-01-21T18:16:00.676Z,29.43
2019-01-21T18:18:30.378Z,33.10
2019-01-21T18:21:00.003Z,36.97
2019-01-21T18:23:29.674Z,33.97
2019-01-21T18:25:59.366Z,36.80
2019-01-21T18:28:29.024Z,34.27
2019-01-21T18:30:58.644Z,34.93
2019-01-21T18:33:28.247Z,31.77
2019-01-21T18:35:57.817Z,33.30
2019-01-21T18:38:27.491Z,35.63
2019-01-21T18:40:57.524Z,31.80
2019-01-21T18:43:28.015Z,35.30
2019-01-21T18:45:57.612Z,36.90
2019-01-21T18:48:27.544Z,32.03
2019-01-21T18:50:57.217Z,32.10
2019-01-21T18:53:26.787Z,33.33
2019-01-21T18:55:56.551Z,33.60
2019-01-21T18:58:26.144Z,35.07
2019-01-21T19:00:55.755Z,34.20
2019-01-21T19:03:25.357Z,33.40
2019-01-21T19:06:14.209Z,31.33
2019-01-21T19:08:43.805Z,30.67
2019-01-21T19:11:13.371Z,33.37
2019-01-21T19:13:44.437Z,32.80
2019-01-21T19:16:14.047Z,34.60
2019-01-21T19:18:43.628Z,30.97
2019-01-21T19:21:13.237Z,32.70
2019-01-21T19:23:43.212Z,33.90
2019-01-21T19:26:32.081Z,30.97
2019-01-21T19:29:01.720Z,30.53
2019-01-21T19:31:31.291Z,34.70
2019-01-21T19:34:00.871Z,33.10
2019-01-21T19:36:30.531Z,33.90
2019-01-21T19:39:00.123Z,33.40
2019-01-21T19:41:29.693Z,33.37
2019-01-21T19:44:00.082Z,31.43
2019-01-21T19:46:29.639Z,32.43
2019-01-21T19:48:59.253Z,32.40
2019-01-21T19:51:28.880Z,31.10
2019-01-21T19:53:58.447Z,32.80
2019-01-21T19:56:28.059Z,32.40
2019-01-21T19:58:57.662Z,32.57
2019-01-21T20:01:27.339Z,29.63
2019-01-21T20:03:56.904Z,29.87
2019-01-21T20:06:26.528Z,35.07
2019-01-21T20:08:56.113Z,31.17
2019-01-21T20:11:25.704Z,33.30
2019-01-21T20:13:55.330Z,33.23
2019-01-21T20:16:24.899Z,35.97
2019-01-21T20:18:54.493Z,35.50
2019-01-21T20:21:24.090Z,31.27
2019-01-21T20:23:53.687Z,49.93
2019-01-21T20:26:23.254Z,31.93
2019-01-21T20:28:52.856Z,34.57
2019-01-21T20:31:22.417Z,32.97
2019-01-21T20:33:52.405Z,29.10
2019-01-21T20:36:22.552Z,33.30
2019-01-21T20:38:52.156Z,33.83
2019-01-21T20:41:21.742Z,28.93
2019-01-21T20:43:51.364Z,30.03
2019-01-21T20:46:21.926Z,31.80
2019-01-21T20:48:51.497Z,31.77
2019-01-21T20:51:21.124Z,31.37
2019-01-21T20:53:50.686Z,31.60
2019-01-21T20:56:39.570Z,36.73
2019-01-21T20:59:09.217Z,32.37
2019-01-21T21:01:38.790Z,31.30
2019-01-21T21:04:14.494Z,31.63
2019-01-21T21:06:44.063Z,32.17
2019-01-21T21:09:13.657Z,36.33
2019-01-21T21:11:43.254Z,33.73
2019-01-21T21:14:12.829Z,33.37
2019-01-21T21:16:42.427Z,33.60
2019-01-21T21:19:12.050Z,34.37
2019-01-21T21:21:41.642Z,32.87
2019-01-21T21:24:11.221Z,30.47
2019-01-21T21:26:40.954Z,39.33
2019-01-21T21:29:10.567Z,32.27
2019-01-21T21:31:40.148Z,31.53
2019-01-21T21:34:09.921Z,29.80
2019-01-21T21:36:39.517Z,31.07
2019-01-21T21:39:09.723Z,31.40
2019-01-21T21:41:39.302Z,31.93
2019-01-21T21:44:08.928Z,32.63
2019-01-21T21:46:38.550Z,31.90
2019-01-21T21:49:08.230Z,31.83
2019-01-21T21:51:37.649Z,32.33
2019-01-21T21:54:07.271Z,30.57
2019-01-21T21:56:36.983Z,30.80
2019-01-21T21:59:25.852Z,35.40
2019-01-21T22:01:55.554Z,35.40
2019-01-21T22:04:25.149Z,32.20
2019-01-21T22:06:54.859Z,28.93
2019-01-21T22:09:24.889Z,33.97
2019-01-21T22:11:54.458Z,34.70
2019-01-21T22:14:24.099Z,31.17
2019-01-21T22:16:53.711Z,31.57
2019-01-21T22:19:23.303Z,28.87
2019-01-21T22:21:53.299Z,28.83
2019-01-21T22:24:23.006Z,31.17
2019-01-21T22:26:52.574Z,32.77
2019-01-21T22:29:22.141Z,32.73
2019-01-21T22:31:51.835Z,32.40
2019-01-21T22:34:21.870Z,31.63
2019-01-21T22:37:10.737Z,30.47
2019-01-21T22:39:42.006Z,30.33
2019-01-21T22:42:11.612Z,38.43
2019-01-21T22:44:41.209Z,32.47
2019-01-21T22:47:10.809Z,28.87
2019-01-21T22:49:40.394Z,31.77
2019-01-21T22:52:10.310Z,29.20
2019-01-21T22:54:39.881Z,28.70
2019-01-21T22:57:09.442Z,31.63
2019-01-21T22:59:39.040Z,33.50
2019-01-21T23:02:28.182Z,34.27
2019-01-21T23:04:58.120Z,28.70
2019-01-21T23:07:27.701Z,31.53
2019-01-21T23:09:57.332Z,32.47
2019-01-21T23:12:27.327Z,30.47
2019-01-21T23:14:56.931Z,29.73
2019-01-21T23:17:26.874Z,31.00
2019-01-21T23:19:56.472Z,29.67
2019-01-21T23:22:26.035Z,31.20
2019-01-21T23:24:55.603Z,30.80
2019-01-21T23:27:25.212Z,34.63
2019-01-21T23:29:55.190Z,27.53
2019-01-21T23:32:24.776Z,30.80
2019-01-21T23:34:54.382Z,37.13
2019-01-21T23:37:23.952Z,32.73
2019-01-21T23:39:53.558Z,32.53
2019-01-21T23:42:23.639Z,32.87
2019-01-21T23:44:53.247Z,33.90
2019-01-21T23:47:23.029Z,33.03
2019-01-21T23:49:52.645Z,37.93
2019-01-21T23:52:22.208Z,33.13
2019-01-21T23:54:51.794Z,33.63
2019-01-21T23:57:21.424Z,33.63
2019-01-21T23:59:51.015Z,32.87
